ADDS METAR Data INFO
IDs: Format: Raw Decoded Include TAF

Data at: 0112 UTC 21 Oct 2017

KGLR 210053Z AUTO 21010KT 10SM CLR 18/08 A3004 RMK AO2 SLP174 T01830078
KGLR 202353Z AUTO 21008KT 10SM CLR 18/08 A3005 RMK AO2 SLP178 T01830083 10239 20183 53001
KGLR 202253Z AUTO 21007KT 10SM CLR 20/08 A3004 RMK AO2 SLP175 T02000083
KGLR 202153Z AUTO 21008KT 10SM CLR 22/08 A3004 RMK AO2 SLP173 T02220083
KGLR 202053Z AUTO 21012KT 10SM CLR 24/08 A3004 RMK AO2 SLP175 T02390083 56011
KGLR 201953Z AUTO 22015KT 10SM CLR 24/08 A3005 RMK AO2 SLP176 T02390083
KGLR 201853Z AUTO 23014KT 10SM CLR 23/09 A3006 RMK AO2 PK WND 21027/1813 SLP180 T02330094
KGLR 201753Z AUTO 22019G24KT 10SM CLR 23/09 A3008 RMK AO2 SLP185 T02280089 10228 20050 58016
KGLR 201653Z AUTO 22016KT 10SM CLR 22/08 A3010 RMK AO2 SLP194 T02170083
KGLR 201553Z AUTO 24012KT 10SM CLR 19/08 A3011 RMK AO2 SLP199 T01940078
KGLR 201453Z AUTO 23011KT 10SM CLR 17/07 A3013 RMK AO2 SLP205 T01720067 58003
KGLR 201353Z AUTO 22011KT 10SM CLR 16/06 A3014 RMK AO2 SLP209 T01560056
KGLR 201253Z AUTO 21008KT 10SM CLR 12/03 A3014 RMK AO2 SLP211 T01220028
KGLR 201153Z AUTO 22004KT 10SM CLR 05/00 A3014 RMK AO2 SLP213 T00500000 10089 20033 50000
KGLR 201053Z AUTO 24003KT 10SM CLR 04/01 A3014 RMK AO2 SLP214 T00390006
KGLR 200953Z AUTO 00000KT 10SM CLR 06/02 A3014 RMK AO2 SLP211 T00560017
KGLR 200853Z AUTO 00000KT 10SM CLR 06/00 A3014 RMK AO2 SLP210 T00610000 50001
KGLR 200753Z AUTO 21003KT 10SM CLR 07/00 A3014 RMK AO2 SLP211 T00720000
KGLR 200653Z AUTO 24005KT 10SM CLR 08/M01 A3014 RMK AO2 SLP210 T00781006
KGLR 200553Z AUTO 24005KT 10SM CLR 09/M01 A3013 RMK AO2 SLP208 T00891006 10100 20078 53004
KGLR 200453Z AUTO 23005KT 10SM CLR 08/M01 A3013 RMK AO2 SLP208 T00831011 401500078
KGLR 200353Z AUTO 23007KT 10SM CLR 09/M01 A3012 RMK AO2 SLP205 T00891011
KGLR 200253Z AUTO 22004KT 10SM CLR 08/M01 A3012 RMK AO2 SLP206 T00781011 53009
KGLR 200153Z AUTO 23006KT 10SM CLR 08/M01 A3011 RMK AO2 SLP203 T00831006
KGLR 200053Z AUTO 23006KT 10SM CLR 09/00 A3010 RMK AO2 SLP198 T00890000
KGLR 192353Z AUTO 23007KT 10SM CLR 10/01 A3009 RMK AO2 SLP197 T01000006 10150 20100 51012
KGLR 192253Z AUTO 24008KT 10SM CLR 12/00 A3008 RMK AO2 SLP191 T01170000
KGLR 192153Z AUTO 28007G15KT 10SM CLR 13/M02 A3007 RMK AO2 SLP185 T01331017
KGLR 192053Z AUTO 28014G20KT 10SM CLR 14/M03 A3006 RMK AO2 SLP181 T01441033 53008
KGLR 191953Z AUTO 26013G19KT 10SM CLR 15/M02 A3004 RMK AO2 SLP175 T01501022
KGLR 191853Z AUTO 26016G21KT 10SM CLR 14/M04 A3004 RMK AO2 SLP174 T01441044
KGLR 191753Z AUTO 27017G22KT 10SM CLR 14/M03 A3004 RMK AO2 SLP172 T01391033 10139 20078 50008
KGLR 191653Z AUTO 28014G23KT 10SM CLR 13/M04 A3004 RMK AO2 SLP174 T01331039
KGLR 191553Z AUTO 27013G21KT 10SM CLR 13/M03 A3002 RMK AO2 SLP167 T01281033
KGLR 191453Z AUTO 28012G20KT 10SM CLR 12/M02 A3001 RMK AO2 SLP164 T01221017 53024
KGLR 191353Z AUTO 25007KT 10SM CLR 11/M01 A2998 RMK AO2 SLP155 T01111011